Dexter, MI

7:53 AM EST on December 22, 2014 (GMT -0500)
Loch Alpine | Change Station
CLOSE
Current Station
Personal Weather Station
Location: Ann Arbor, MI
Elevation: 915 ft
Nearby Weather Stations

Elev 915 ft 42.34 °N, 83.82 °W | Updated 21 seconds ago

Clear
Clear
23.8 °F
Feels Like 24 °F
N
0.0
Wind Variable Wind from SE
Gusts 0.0 mph

Today
High -- | Low -- °F
--% Chance of Precip.
Yesterday
High -- | Low -- °F
Precip. -- in
8:01 AM 5:06 PM
New Moon, 0% visible
Pressure 30.12 in
Visibility 4.0 miles
Clouds Clear
Windchill 24 °F
Dew Point 21 °F
Humidity 89%
Rainfall 0.00 in
Snow Depth Not available.
UV 0 out of 12
Pollen .10 out of 12
Air Quality Not available.
Flu Activity Not available.
METAR KARB 221153Z AUTO 08003KT 4SM BR CLR M04/M06 A3009 RMK AO2 SLP199 T10441056 11028 21050 56008

More Conditions Fewer Conditions

Pressure 30.12 in
Visibility 4.0 miles
Clouds Clear
Windchill 24 °F
Dew Point 21 °F
Humidity 89%
Rainfall 0.00 in
Snow Depth Not available.
UV 0 out of 12
Pollen .10 out of 12
Air Quality Not available.
Flu Activity Not available.
METAR KARB 221153Z AUTO 08003KT 4SM BR CLR M04/M06 A3009 RMK AO2 SLP199 T10441056 11028 21050 56008

More Conditions Fewer Conditions

10-Day Weather Forecast

Almanac

Astronomy

Dec. 22, 2014 Rise Set
Actual Time
Civil Twilight
Nautical Twilight
Astronomical Twilight
Moon
Length of Visible Light
Length of Day
Tomorrow will be .
, % of the Moon is Illuminated

Today's Extremes

State Highs State Lows

Community

WunderPhotos

Upload Photos

1,779,598 photos uploaded!

WunderBlogs® & News

Nearby

Air Quality

  Air Quality AQ Index Pollutant
Not available.

Snow Depth

Station Depth Elevation

Earthquake Activity

City Distance Mag. Time & Date
Minimum magnitude displayed is 2.5.

Coastal Water Temperatures

Place Temperature

Nearby Weather Stations